createdAt,value
2018-08-09T07:23:42.493Z,17.30
2018-08-09T07:25:44.571Z,18.07
2018-08-09T07:27:46.867Z,17.50
2018-08-09T07:29:49.245Z,18.00
2018-08-09T07:31:51.284Z,17.07
2018-08-09T07:33:53.420Z,16.60
2018-08-09T07:35:55.618Z,14.97
2018-08-09T07:37:57.676Z,15.10
2018-08-09T07:39:59.772Z,13.60
2018-08-09T07:42:01.888Z,15.93
2018-08-09T07:44:04.605Z,14.90
2018-08-09T07:46:07.018Z,14.03
2018-08-09T07:48:09.377Z,14.13
2018-08-09T07:50:11.453Z,14.40
2018-08-09T07:52:13.500Z,13.30
2018-08-09T07:54:16.015Z,12.77
2018-08-09T07:56:18.303Z,13.67
2018-08-09T07:58:20.442Z,14.60
2018-08-09T08:00:22.534Z,13.10
2018-08-09T08:02:24.652Z,16.30
2018-08-09T08:04:26.818Z,16.53
2018-08-09T08:06:29.084Z,14.90
2018-08-09T08:08:31.258Z,17.33
2018-08-09T08:10:33.263Z,17.80
2018-08-09T08:12:35.349Z,17.57
2018-08-09T08:14:38.124Z,17.87
2018-08-09T08:16:40.288Z,17.30
2018-08-09T08:18:42.373Z,15.70
2018-08-09T08:20:44.732Z,14.57
2018-08-09T08:22:46.826Z,14.50
2018-08-09T08:24:49.109Z,15.57
2018-08-09T08:26:51.307Z,15.00
2018-08-09T08:28:53.225Z,16.97
2018-08-09T08:30:55.385Z,15.60
2018-08-09T08:32:57.433Z,15.20
2018-08-09T08:34:59.513Z,14.70
2018-08-09T08:37:01.619Z,15.40
2018-08-09T08:39:06.748Z,14.33
2018-08-09T08:41:08.781Z,13.90
2018-08-09T08:43:11.824Z,12.37
2018-08-09T08:45:13.834Z,13.70
2018-08-09T08:47:15.901Z,13.63
2018-08-09T08:49:17.939Z,13.73
2018-08-09T08:51:20.915Z,14.70
2018-08-09T08:53:23.000Z,14.47
2018-08-09T08:55:25.082Z,14.13
2018-08-09T08:57:27.132Z,14.83
2018-08-09T08:59:29.917Z,12.63
2018-08-09T09:01:32.188Z,12.93
2018-08-09T09:03:34.294Z,14.10
2018-08-09T09:05:37.067Z,13.00
2018-08-09T09:07:39.397Z,13.50
2018-08-09T09:09:41.477Z,15.13
2018-08-09T09:11:43.517Z,15.20
2018-08-09T09:13:45.648Z,17.80
2018-08-09T09:15:47.636Z,12.73
2018-08-09T09:17:49.668Z,13.73
2018-08-09T09:19:51.722Z,14.40
2018-08-09T09:21:53.797Z,12.77
2018-08-09T09:23:55.840Z,12.40
2018-08-09T09:25:57.909Z,13.53
2018-08-09T09:27:59.982Z,13.90
2018-08-09T09:30:02.088Z,12.80
2018-08-09T09:32:04.108Z,11.93
2018-08-09T09:34:06.162Z,11.03
2018-08-09T09:36:08.236Z,11.37
2018-08-09T09:38:10.301Z,14.33
2018-08-09T09:40:12.378Z,13.00
2018-08-09T09:42:16.548Z,12.17
2018-08-09T09:44:18.645Z,12.30
2018-08-09T09:46:20.777Z,11.30
2018-08-09T09:48:22.876Z,13.00
2018-08-09T09:50:24.893Z,24.77
2018-08-09T09:52:26.948Z,27.77
2018-08-09T09:54:29.038Z,17.73
2018-08-09T09:56:31.127Z,21.77
2018-08-09T09:58:33.162Z,13.20
2018-08-09T10:00:41.045Z,13.73
2018-08-09T10:02:43.760Z,22.83
2018-08-09T10:04:45.976Z,20.83
2018-08-09T10:06:48.088Z,22.30
2018-08-09T10:08:50.249Z,22.03
2018-08-09T10:10:52.960Z,20.33
2018-08-09T10:12:55.102Z,22.50
2018-08-09T10:14:57.164Z,21.93
2018-08-09T10:16:59.342Z,22.33
2018-08-09T10:19:01.606Z,21.50
2018-08-09T10:21:04.428Z,21.87
2018-08-09T10:23:07.349Z,20.50
2018-08-09T10:25:09.445Z,23.20
2018-08-09T10:27:11.578Z,23.53
2018-08-09T10:29:13.617Z,21.63
2018-08-09T10:31:15.660Z,21.20
2018-08-09T10:33:17.683Z,21.30
2018-08-09T10:35:19.773Z,20.50
2018-08-09T10:37:21.881Z,21.23
2018-08-09T10:39:23.937Z,20.80
2018-08-09T10:41:25.984Z,21.30
2018-08-09T10:43:28.018Z,20.80
2018-08-09T10:45:30.068Z,21.03
2018-08-09T10:47:32.124Z,21.37
2018-08-09T10:49:34.122Z,21.63
2018-08-09T10:51:36.184Z,20.37
2018-08-09T10:53:38.208Z,21.47
2018-08-09T10:55:40.252Z,21.77
2018-08-09T10:57:42.246Z,18.93
2018-08-09T10:59:44.306Z,14.97
2018-08-09T11:01:46.364Z,14.73
2018-08-09T11:03:48.331Z,13.17
2018-08-09T11:05:50.349Z,14.23
2018-08-09T11:07:52.380Z,13.90
2018-08-09T11:09:54.408Z,14.80
2018-08-09T11:11:56.463Z,14.27
2018-08-09T11:13:58.493Z,13.80
2018-08-09T11:16:00.537Z,13.80
2018-08-09T11:18:02.556Z,13.00
2018-08-09T11:20:04.581Z,12.13
2018-08-09T11:22:07.313Z,11.93
2018-08-09T11:24:09.339Z,12.10
2018-08-09T11:26:11.360Z,12.77
2018-08-09T11:28:13.360Z,11.27
2018-08-09T11:30:15.372Z,11.17
2018-08-09T11:32:17.441Z,12.03
2018-08-09T11:34:19.520Z,10.67
2018-08-09T11:36:21.645Z,11.30
2018-08-09T11:38:24.612Z,11.23
2018-08-09T11:40:26.640Z,11.37
2018-08-09T11:42:28.676Z,11.07
2018-08-09T11:44:30.724Z,11.57
2018-08-09T11:46:32.747Z,9.63
2018-08-09T11:48:34.956Z,11.00
2018-08-09T11:50:36.960Z,10.13
2018-08-09T11:52:39.013Z,9.37
2018-08-09T11:54:41.012Z,9.43
2018-08-09T11:56:43.102Z,10.13
2018-08-09T11:58:45.061Z,10.47
2018-08-09T12:00:47.096Z,10.83
2018-08-09T12:02:49.273Z,9.87
2018-08-09T12:04:51.284Z,10.20
2018-08-09T12:06:53.317Z,9.00
2018-08-09T12:08:55.328Z,10.20
2018-08-09T12:10:57.368Z,14.20
2018-08-09T12:12:59.428Z,9.57
2018-08-09T12:15:01.523Z,9.47
2018-08-09T12:17:03.678Z,9.13
2018-08-09T12:19:06.424Z,9.57
2018-08-09T12:21:08.466Z,8.67
2018-08-09T12:23:10.536Z,9.17
2018-08-09T12:25:12.577Z,10.27
2018-08-09T12:27:14.636Z,9.53
2018-08-09T12:29:16.817Z,8.90
2018-08-09T12:31:18.904Z,9.10
2018-08-09T12:33:21.005Z,9.50
2018-08-09T12:35:23.192Z,9.70
2018-08-09T12:37:25.324Z,8.67
2018-08-09T12:39:27.356Z,9.70
2018-08-09T12:41:29.381Z,8.10
2018-08-09T12:43:31.444Z,9.40
2018-08-09T12:45:33.536Z,8.50
2018-08-09T12:47:36.472Z,8.50
2018-08-09T12:49:38.485Z,9.67
2018-08-09T12:51:40.536Z,9.93
2018-08-09T12:53:42.552Z,8.87
2018-08-09T12:55:44.580Z,9.30
2018-08-09T12:57:46.593Z,8.83
2018-08-09T12:59:48.667Z,8.77
2018-08-09T13:01:50.684Z,9.67
2018-08-09T13:03:53.189Z,9.83
2018-08-09T13:05:55.304Z,8.90
2018-08-09T13:07:57.310Z,9.57
2018-08-09T13:10:00.340Z,9.73
2018-08-09T13:12:02.469Z,9.17
2018-08-09T13:14:05.340Z,10.10
2018-08-09T13:16:07.469Z,10.27
2018-08-09T13:18:10.317Z,8.83
2018-08-09T13:20:15.543Z,9.70
2018-08-09T20:26:49.939Z,3.60
2018-08-09T20:29:31.215Z,4.13
2018-08-09T20:31:53.816Z,3.90
